createdAt,value
2017-07-03T00:02:11.938Z,10.02
2017-07-03T00:04:40.324Z,10.50
2017-07-03T00:07:08.665Z,10.00
2017-07-03T00:09:36.989Z,10.46
2017-07-03T00:12:05.328Z,9.96
2017-07-03T00:14:33.642Z,11.26
2017-07-03T00:17:01.967Z,11.24
2017-07-03T00:19:30.316Z,10.16
2017-07-03T00:21:58.645Z,10.10
2017-07-03T00:24:26.984Z,9.10
2017-07-03T00:26:55.294Z,9.18
2017-07-03T00:29:23.629Z,8.54
2017-07-03T00:31:51.944Z,8.62
2017-07-03T00:34:20.280Z,9.00
2017-07-03T00:36:48.599Z,9.22
2017-07-03T00:39:16.949Z,8.28
2017-07-03T00:41:45.270Z,9.10
2017-07-03T00:44:13.665Z,8.56
2017-07-03T00:46:42.001Z,8.20
2017-07-03T00:49:10.316Z,8.54
2017-07-03T00:51:38.659Z,8.50
2017-07-03T00:54:06.972Z,7.42
2017-07-03T00:56:35.307Z,8.58
2017-07-03T00:59:03.632Z,8.12
2017-07-03T01:01:31.967Z,8.68
2017-07-03T01:04:00.281Z,8.30
2017-07-03T01:06:28.640Z,8.70
2017-07-03T01:08:57.033Z,8.38
2017-07-03T01:11:25.353Z,7.48
2017-07-03T01:13:53.711Z,8.26
2017-07-03T01:16:22.025Z,7.48
2017-07-03T01:18:50.362Z,6.98
2017-07-03T01:21:18.675Z,7.38
2017-07-03T01:23:47.026Z,7.22
2017-07-03T01:26:15.340Z,6.66
2017-07-03T01:28:43.678Z,6.48
2017-07-03T01:31:11.998Z,6.34
2017-07-03T01:33:41.354Z,6.88
2017-07-03T01:36:09.669Z,6.72
2017-07-03T01:38:37.981Z,5.70
2017-07-03T01:41:06.312Z,5.74
2017-07-03T01:43:34.637Z,5.72
2017-07-03T01:46:02.967Z,6.52
2017-07-03T01:48:32.328Z,6.22
2017-07-03T01:51:00.666Z,6.48
2017-07-03T01:53:28.991Z,7.14
2017-07-03T01:55:57.324Z,6.76
2017-07-03T01:58:25.639Z,6.92
2017-07-03T02:00:54.029Z,6.86
2017-07-03T02:03:22.340Z,6.50
2017-07-03T02:05:50.660Z,5.62
2017-07-03T02:08:18.994Z,5.50
2017-07-03T02:10:47.411Z,6.30
2017-07-03T02:13:15.741Z,5.58
2017-07-03T02:15:44.052Z,6.14
2017-07-03T02:18:12.396Z,6.26
2017-07-03T02:20:40.824Z,5.98
2017-07-03T02:23:09.164Z,6.42
2017-07-03T02:25:38.503Z,5.60
2017-07-03T02:28:06.820Z,5.96
2017-07-03T02:30:35.191Z,5.72
2017-07-03T02:33:03.380Z,6.12
2017-07-03T02:35:31.713Z,5.90
2017-07-03T02:38:00.030Z,5.92
2017-07-03T02:40:28.368Z,5.92
2017-07-03T02:42:56.753Z,5.04
2017-07-03T02:45:25.101Z,5.18
2017-07-03T02:47:53.512Z,5.72
2017-07-03T02:50:21.848Z,5.26
2017-07-03T02:52:50.163Z,5.64
2017-07-03T02:55:18.471Z,6.68
2017-07-03T02:57:46.844Z,4.96
2017-07-03T03:00:15.152Z,5.42
2017-07-03T03:02:43.601Z,5.82
2017-07-03T03:05:11.912Z,5.84
2017-07-03T03:07:40.249Z,5.38
2017-07-03T03:10:08.565Z,5.14
2017-07-03T03:12:36.912Z,5.92
2017-07-03T03:15:05.228Z,5.44
2017-07-03T03:17:32.845Z,4.94
2017-07-03T03:20:01.187Z,5.22
2017-07-03T03:22:29.500Z,5.50
2017-07-03T03:24:57.837Z,5.18
2017-07-03T03:27:26.152Z,5.24
2017-07-03T03:29:54.484Z,4.70
2017-07-03T03:32:22.894Z,4.68
2017-07-03T03:34:51.231Z,4.44
2017-07-03T03:37:19.543Z,4.60
2017-07-03T03:39:47.876Z,4.96
2017-07-03T03:42:16.195Z,4.50
2017-07-03T03:44:44.533Z,4.80
2017-07-03T03:47:12.850Z,4.94
2017-07-03T03:49:41.156Z,5.08
2017-07-03T03:52:09.520Z,5.22
2017-07-03T03:54:37.829Z,4.60
2017-07-03T03:57:06.177Z,5.46
2017-07-03T03:59:34.484Z,5.08
2017-07-03T04:02:02.117Z,4.32
2017-07-03T04:04:30.428Z,5.24
2017-07-03T04:06:58.882Z,5.60
2017-07-03T04:09:26.433Z,4.90
2017-07-03T04:11:54.830Z,4.76
2017-07-03T04:14:23.145Z,5.02
2017-07-03T04:16:51.547Z,4.52
2017-07-03T04:19:19.878Z,4.92
2017-07-03T04:21:48.205Z,4.72
2017-07-03T04:24:16.539Z,4.52
2017-07-03T04:26:44.851Z,4.86
2017-07-03T04:29:13.184Z,5.04
2017-07-03T04:31:41.509Z,6.14
2017-07-03T04:34:09.841Z,5.04
2017-07-03T04:36:38.167Z,4.82
2017-07-03T04:39:06.506Z,5.06
2017-07-03T04:41:34.820Z,4.70
2017-07-03T04:44:03.131Z,5.56
2017-07-03T04:46:30.702Z,4.62
2017-07-03T04:48:59.019Z,5.56
2017-07-03T04:51:27.356Z,5.16
2017-07-03T04:53:55.676Z,6.02
2017-07-03T04:56:24.014Z,5.82
2017-07-03T04:58:52.466Z,5.30
2017-07-03T05:01:20.847Z,5.08
2017-07-03T05:03:49.161Z,5.64
2017-07-03T05:06:16.782Z,6.08
2017-07-03T05:08:45.094Z,4.90
2017-07-03T05:11:13.420Z,5.32
2017-07-03T05:13:41.757Z,9.84
2017-07-03T05:16:10.084Z,12.52
2017-07-03T05:18:38.414Z,5.40
2017-07-03T05:21:06.736Z,11.40
2017-07-03T05:23:35.076Z,14.84
2017-07-03T05:26:03.430Z,6.64
2017-07-03T05:28:31.785Z,4.90
2017-07-03T05:31:00.105Z,5.84
2017-07-03T05:33:28.420Z,6.30
2017-07-03T05:35:56.767Z,8.12
2017-07-03T05:38:25.092Z,10.88
2017-07-03T05:40:53.428Z,8.54
2017-07-03T05:43:38.422Z,6.28
2017-07-03T05:46:06.776Z,11.60
2017-07-03T05:48:35.087Z,5.54
2017-07-03T05:51:03.451Z,5.62
2017-07-03T05:53:31.769Z,5.46
2017-07-03T05:56:00.100Z,5.10
2017-07-03T05:58:28.445Z,15.72
2017-07-03T06:00:56.856Z,4.88
2017-07-03T06:03:25.189Z,4.86
2017-07-03T06:05:53.611Z,13.64
2017-07-03T06:08:21.949Z,7.20
2017-07-03T06:10:50.280Z,13.24
2017-07-03T06:13:18.621Z,8.36
2017-07-03T06:15:46.953Z,5.98
2017-07-03T06:18:15.271Z,5.42
2017-07-03T06:20:43.615Z,8.88
2017-07-03T06:23:11.949Z,6.00
2017-07-03T06:25:40.289Z,5.76
2017-07-03T06:28:08.612Z,6.02
2017-07-03T06:30:36.948Z,4.94
2017-07-03T06:33:05.269Z,5.50
2017-07-03T06:35:33.619Z,4.70
2017-07-03T06:38:01.940Z,5.44
2017-07-03T06:40:30.256Z,8.26
2017-07-03T06:42:58.588Z,5.78
2017-07-03T06:45:26.909Z,7.96
2017-07-03T06:47:55.246Z,8.06
2017-07-03T06:50:23.563Z,5.32
2017-07-03T06:52:51.905Z,5.16
2017-07-03T06:55:20.220Z,5.32
2017-07-03T06:57:48.544Z,4.76
2017-07-03T07:00:16.863Z,12.00
2017-07-03T07:02:45.180Z,7.58
2017-07-03T07:05:13.518Z,5.40
2017-07-03T07:07:41.842Z,3.72
2017-07-03T07:10:10.181Z,3.08
2017-07-03T07:12:38.493Z,6.70
2017-07-03T07:15:06.828Z,5.32
2017-07-03T07:17:35.144Z,3.72
2017-07-03T07:20:03.477Z,3.00
2017-07-03T07:22:31.807Z,3.10
2017-07-03T07:25:00.154Z,3.02
2017-07-03T07:27:43.539Z,2.70
2017-07-03T07:30:11.891Z,2.72
2017-07-03T07:32:40.208Z,3.16
2017-07-03T07:35:08.522Z,3.10
2017-07-03T07:37:36.863Z,2.28
2017-07-03T07:40:05.167Z,2.64
2017-07-03T07:42:33.502Z,2.88
2017-07-03T07:45:01.828Z,3.04
2017-07-03T07:47:30.168Z,2.98
2017-07-03T07:49:58.478Z,2.88
2017-07-03T07:52:26.821Z,2.72
2017-07-03T07:54:55.131Z,2.86
2017-07-03T07:57:23.444Z,2.70
2017-07-03T07:59:51.811Z,2.64
2017-07-03T08:02:20.116Z,2.58
2017-07-03T08:04:48.453Z,2.84
2017-07-03T08:07:16.767Z,3.26
2017-07-03T08:09:45.108Z,3.08
2017-07-03T08:12:13.421Z,3.40
2017-07-03T08:14:41.761Z,2.72
2017-07-03T08:17:10.068Z,3.60
2017-07-03T08:19:38.381Z,3.48
2017-07-03T08:22:06.733Z,3.22
2017-07-03T08:24:35.051Z,3.84
2017-07-03T08:27:03.379Z,3.78
2017-07-03T08:29:31.694Z,3.92
2017-07-03T08:32:00.030Z,3.88
2017-07-03T08:34:28.344Z,3.24
2017-07-03T08:36:56.676Z,3.94
2017-07-03T08:39:25.012Z,3.72
2017-07-03T08:41:53.322Z,4.10
2017-07-03T08:44:21.662Z,4.40
2017-07-03T08:46:49.980Z,4.60
2017-07-03T08:49:18.317Z,4.34
2017-07-03T08:51:46.627Z,4.70
2017-07-03T08:54:14.990Z,5.06
2017-07-03T08:56:43.299Z,4.48
2017-07-03T08:59:11.608Z,4.80
2017-07-03T09:01:39.955Z,4.94
2017-07-03T09:04:08.263Z,4.80
2017-07-03T09:06:36.600Z,4.72
2017-07-03T09:09:04.909Z,4.74
2017-07-03T09:11:33.248Z,5.08
2017-07-03T09:14:01.563Z,5.26
2017-07-03T09:16:29.905Z,4.72
2017-07-03T09:18:58.219Z,4.76
2017-07-03T09:21:26.527Z,4.46
2017-07-03T09:23:54.858Z,4.84
2017-07-03T09:26:23.172Z,3.66
2017-07-03T09:28:51.507Z,4.70
2017-07-03T09:31:19.819Z,4.38
2017-07-03T09:33:48.167Z,4.50
2017-07-03T09:36:16.467Z,4.22
2017-07-03T09:38:44.855Z,4.34
2017-07-03T09:41:13.167Z,4.24
2017-07-03T09:43:41.484Z,3.74
2017-07-03T09:46:09.820Z,4.30
2017-07-03T09:48:38.135Z,4.88
2017-07-03T09:51:06.476Z,4.08
2017-07-03T09:53:34.788Z,4.28
2017-07-03T09:56:03.119Z,3.90
2017-07-03T09:58:31.431Z,4.24
2017-07-03T10:00:59.774Z,4.14
2017-07-03T10:03:28.088Z,4.10
2017-07-03T10:05:56.405Z,3.54
2017-07-03T10:08:25.073Z,3.86
2017-07-03T10:10:53.385Z,4.04
2017-07-03T10:13:21.722Z,4.26
2017-07-03T10:15:50.038Z,4.32
2017-07-03T10:18:18.376Z,3.78
2017-07-03T10:20:46.980Z,9.08
2017-07-03T10:23:15.333Z,5.86
2017-07-03T10:25:43.663Z,11.82
2017-07-03T10:28:11.975Z,4.40
2017-07-03T10:30:40.316Z,15.80
2017-07-03T10:33:08.631Z,10.40
2017-07-03T10:35:36.967Z,6.36
2017-07-03T10:38:05.272Z,3.38
2017-07-03T10:40:33.604Z,3.68
2017-07-03T10:43:01.912Z,3.30
2017-07-03T10:45:30.256Z,12.56
2017-07-03T10:47:57.804Z,6.24
2017-07-03T10:50:26.139Z,4.02
2017-07-03T10:52:54.477Z,6.32
2017-07-03T10:55:22.781Z,6.88
2017-07-03T10:57:51.107Z,4.50
2017-07-03T11:00:18.651Z,3.82
2017-07-03T11:02:47.030Z,4.12
2017-07-03T11:05:15.340Z,3.90
2017-07-03T11:07:43.687Z,7.40
2017-07-03T11:10:12.001Z,4.90
2017-07-03T11:12:40.317Z,6.30
2017-07-03T11:15:08.664Z,4.28
2017-07-03T11:17:36.981Z,4.12
2017-07-03T11:20:05.316Z,4.06
2017-07-03T11:22:32.857Z,3.84
2017-07-03T11:25:01.196Z,3.62
2017-07-03T11:27:29.509Z,4.02
2017-07-03T11:29:57.862Z,4.04
2017-07-03T11:32:26.183Z,3.44
2017-07-03T11:34:54.495Z,3.88
2017-07-03T11:37:22.828Z,4.16
2017-07-03T11:39:51.136Z,3.50
2017-07-03T11:42:19.464Z,3.74
2017-07-03T11:44:47.780Z,4.60
2017-07-03T11:47:16.113Z,4.02
2017-07-03T11:49:44.424Z,3.92
2017-07-03T11:52:12.776Z,3.84
2017-07-03T11:54:41.095Z,3.68
2017-07-03T11:57:09.408Z,3.54
2017-07-03T11:59:37.745Z,4.26
2017-07-03T12:02:06.055Z,4.00
2017-07-03T12:04:34.389Z,3.98
2017-07-03T12:07:02.701Z,4.00
2017-07-03T12:09:31.035Z,4.28
2017-07-03T12:11:59.350Z,4.06
2017-07-03T12:14:27.681Z,3.96
2017-07-03T12:16:55.992Z,3.86
2017-07-03T12:19:24.305Z,3.76
2017-07-03T12:21:52.638Z,3.98
2017-07-03T12:24:20.989Z,4.22
2017-07-03T12:26:49.324Z,3.48
2017-07-03T12:29:17.632Z,3.74
2017-07-03T12:31:45.980Z,3.94
2017-07-03T12:34:14.293Z,4.08
2017-07-03T12:36:42.640Z,3.50
2017-07-03T12:39:10.943Z,3.78
2017-07-03T12:41:39.264Z,3.76
2017-07-03T12:44:07.602Z,3.74
2017-07-03T12:46:35.921Z,3.96
2017-07-03T12:49:04.253Z,4.18
2017-07-03T12:51:32.604Z,3.60
2017-07-03T12:54:00.945Z,4.14
2017-07-03T12:56:29.256Z,4.40
2017-07-03T12:58:57.588Z,4.20
2017-07-03T13:01:25.892Z,4.34
2017-07-03T13:03:54.200Z,3.92
2017-07-03T13:06:22.563Z,4.52
2017-07-03T13:08:50.877Z,4.10
2017-07-03T13:11:19.221Z,3.86
2017-07-03T13:13:47.544Z,4.44
2017-07-03T13:16:15.881Z,4.76
2017-07-03T13:18:44.197Z,4.00
2017-07-03T13:21:12.538Z,3.86
2017-07-03T13:23:40.842Z,3.60
2017-07-03T13:26:09.151Z,4.48
2017-07-03T13:28:37.481Z,3.62
2017-07-03T13:31:05.811Z,3.70
2017-07-03T13:33:34.142Z,3.70
2017-07-03T13:36:02.464Z,3.82
2017-07-03T13:38:30.796Z,3.76
2017-07-03T13:40:59.123Z,3.92
2017-07-03T13:43:27.433Z,3.76
2017-07-03T13:45:55.767Z,3.54
2017-07-03T13:48:23.313Z,3.42
2017-07-03T13:50:51.656Z,3.22
2017-07-03T13:53:19.963Z,3.42
2017-07-03T13:55:48.306Z,3.60
2017-07-03T13:58:16.607Z,3.38
2017-07-03T14:00:44.961Z,3.26
2017-07-03T14:03:13.324Z,3.52
2017-07-03T14:05:41.632Z,3.16
2017-07-03T14:08:09.982Z,3.58
2017-07-03T14:10:38.296Z,3.68
2017-07-03T14:13:06.631Z,3.30
2017-07-03T14:15:34.939Z,3.74
2017-07-03T14:18:03.286Z,3.24
2017-07-03T14:20:31.597Z,3.98
2017-07-03T14:22:59.954Z,3.54
2017-07-03T14:25:28.260Z,3.44
2017-07-03T14:27:56.594Z,3.56
2017-07-03T14:30:24.931Z,3.52
2017-07-03T14:32:53.241Z,3.76
2017-07-03T14:35:21.576Z,3.38
2017-07-03T14:37:49.895Z,3.92
2017-07-03T14:40:18.238Z,3.36
2017-07-03T14:42:46.573Z,3.86
2017-07-03T14:45:14.929Z,3.38
2017-07-03T14:47:43.235Z,3.70
2017-07-03T14:50:11.543Z,4.60
2017-07-03T14:52:39.881Z,3.96
2017-07-03T14:55:08.200Z,3.40
2017-07-03T14:57:36.545Z,3.42
2017-07-03T15:00:04.876Z,3.62
2017-07-03T15:02:33.210Z,3.40
2017-07-03T15:05:01.521Z,3.20
2017-07-03T15:09:57.309Z,3.52
2017-07-03T15:12:25.625Z,3.72
2017-07-03T15:14:53.959Z,3.20
2017-07-03T15:17:22.316Z,3.06
2017-07-03T15:19:50.653Z,3.70
2017-07-03T15:22:18.974Z,3.42
2017-07-03T15:24:47.323Z,3.44
2017-07-03T15:27:15.633Z,5.54
2017-07-03T15:29:43.978Z,32.28
2017-07-03T15:32:12.293Z,7.50
2017-07-03T15:34:40.621Z,8.58
2017-07-03T15:37:08.956Z,6.78
2017-07-03T15:39:37.273Z,11.00
2017-07-03T15:42:05.713Z,28.42
2017-07-03T15:44:34.026Z,6.34
2017-07-03T15:47:03.429Z,5.20
2017-07-03T15:49:31.757Z,6.28
2017-07-03T15:52:00.137Z,3.50
2017-07-03T15:54:28.447Z,13.62
2017-07-03T15:56:56.883Z,3.10
2017-07-03T15:59:25.224Z,4.14
2017-07-03T16:01:53.541Z,5.02
2017-07-03T16:04:21.885Z,11.76
2017-07-03T16:06:51.347Z,15.14
2017-07-03T16:09:19.798Z,40.30
2017-07-03T16:11:48.177Z,23.14
2017-07-03T16:14:16.548Z,3.72
2017-07-03T16:16:44.863Z,5.30
2017-07-03T16:19:13.176Z,3.60
2017-07-03T16:21:41.517Z,8.76
2017-07-03T16:24:10.777Z,3.40
2017-07-03T16:26:39.147Z,5.88
2017-07-03T16:29:08.456Z,4.62
2017-07-03T16:31:36.814Z,3.54
2017-07-03T16:34:05.151Z,3.58
2017-07-03T16:36:33.500Z,17.18
2017-07-03T16:39:01.816Z,4.58
2017-07-03T16:41:30.123Z,3.62
2017-07-03T16:43:58.467Z,3.84
2017-07-03T16:46:26.781Z,5.64
2017-07-03T16:48:55.116Z,3.28
2017-07-03T16:51:23.429Z,12.24
2017-07-03T16:53:51.761Z,9.78
2017-07-03T16:56:20.072Z,6.84
2017-07-03T16:58:48.411Z,2.96
2017-07-03T17:01:16.733Z,3.04
2017-07-03T17:03:45.041Z,2.86
2017-07-03T17:06:13.389Z,9.14
2017-07-03T17:08:41.705Z,12.16
2017-07-03T17:11:10.037Z,7.42
2017-07-03T17:13:38.355Z,13.78
2017-07-03T17:16:06.693Z,7.38
2017-07-03T17:18:35.009Z,3.12
2017-07-03T17:21:03.361Z,24.36
2017-07-03T17:23:31.676Z,5.90
2017-07-03T17:25:59.985Z,3.48
2017-07-03T17:28:28.333Z,3.34
2017-07-03T17:30:56.651Z,29.70
2017-07-03T17:33:24.998Z,2.82
2017-07-03T17:35:53.305Z,3.30
2017-07-03T17:38:21.638Z,3.52
2017-07-03T17:40:49.943Z,2.80
2017-07-03T17:43:18.304Z,4.84
2017-07-03T17:45:46.628Z,3.30
2017-07-03T17:48:14.944Z,3.12
2017-07-03T17:50:43.276Z,3.86
2017-07-03T17:53:11.596Z,3.20
2017-07-03T17:55:39.924Z,2.70
2017-07-03T17:58:08.236Z,2.48
2017-07-03T18:00:36.578Z,3.07
2017-07-03T18:03:04.888Z,2.88
2017-07-03T18:05:33.203Z,3.00
2017-07-03T18:08:01.567Z,2.90
2017-07-03T18:10:29.882Z,2.88
2017-07-03T18:12:58.237Z,2.60
2017-07-03T18:15:26.553Z,2.80
2017-07-03T18:17:54.891Z,2.84
2017-07-03T18:20:23.201Z,2.86
2017-07-03T18:22:51.539Z,3.02
2017-07-03T18:25:19.844Z,2.76
2017-07-03T18:27:48.160Z,2.72
2017-07-03T18:30:16.495Z,2.64
2017-07-03T18:32:44.813Z,2.72
2017-07-03T18:35:13.149Z,2.96
2017-07-03T18:37:41.492Z,3.02
2017-07-03T18:40:09.833Z,2.90
2017-07-03T18:42:38.142Z,2.88
2017-07-03T18:45:06.481Z,3.00
2017-07-03T18:47:34.789Z,2.92
2017-07-03T18:50:03.099Z,2.84
2017-07-03T18:52:31.435Z,2.92
2017-07-03T18:54:59.784Z,3.02
2017-07-03T18:57:28.121Z,3.24
2017-07-03T18:59:55.674Z,3.16
2017-07-03T19:02:24.017Z,2.76
2017-07-03T19:04:52.332Z,3.40
2017-07-03T19:07:20.714Z,3.22
2017-07-03T19:09:49.020Z,3.96
2017-07-03T19:12:17.328Z,3.60
2017-07-03T19:14:45.663Z,3.00
2017-07-03T19:17:13.997Z,5.32
2017-07-03T19:19:42.335Z,6.68
2017-07-03T19:22:10.644Z,5.44
2017-07-03T19:24:38.980Z,5.30
2017-07-03T19:27:07.292Z,4.76
2017-07-03T19:29:35.632Z,3.98
2017-07-03T19:32:03.949Z,4.32
2017-07-03T19:34:32.260Z,4.08
2017-07-03T19:37:00.597Z,4.98
2017-07-03T19:39:28.920Z,4.70
2017-07-03T19:41:57.282Z,3.82
2017-07-03T19:44:25.588Z,3.48
2017-07-03T19:46:53.936Z,4.10
2017-07-03T19:49:22.253Z,5.88
2017-07-03T19:51:50.609Z,6.76
2017-07-03T19:54:18.924Z,5.96
2017-07-03T19:56:47.237Z,3.66
2017-07-03T19:59:15.564Z,4.10
2017-07-03T20:01:43.876Z,3.88
2017-07-03T20:04:12.201Z,3.38
2017-07-03T20:06:40.526Z,3.82
2017-07-03T20:09:08.857Z,4.20
2017-07-03T20:11:37.204Z,4.68
2017-07-03T20:14:05.552Z,4.20
2017-07-03T20:16:33.864Z,3.88
2017-07-03T20:19:02.183Z,7.20
2017-07-03T20:21:30.530Z,4.00
2017-07-03T20:23:58.836Z,4.02
2017-07-03T20:26:27.180Z,3.82
2017-07-03T20:28:55.499Z,4.46
2017-07-03T20:31:23.844Z,4.82
2017-07-03T20:33:52.156Z,6.36
2017-07-03T20:36:20.505Z,3.96
2017-07-03T20:38:48.825Z,4.14
2017-07-03T20:41:17.133Z,4.52
2017-07-03T20:43:45.469Z,4.78
2017-07-03T20:46:13.785Z,4.68
2017-07-03T20:48:42.126Z,5.08
2017-07-03T20:51:10.434Z,4.28
2017-07-03T20:53:38.761Z,4.22
2017-07-03T20:56:07.073Z,4.94
2017-07-03T20:58:34.646Z,4.20
2017-07-03T21:01:02.953Z,4.48
2017-07-03T21:03:31.261Z,5.46
2017-07-03T21:05:58.832Z,5.38
2017-07-03T21:08:27.137Z,4.72
2017-07-03T21:10:55.470Z,6.22
2017-07-03T21:13:24.028Z,6.08
2017-07-03T21:15:52.360Z,5.94
2017-07-03T21:18:20.668Z,6.14
2017-07-03T21:20:48.999Z,5.76
2017-07-03T21:23:17.316Z,5.44
2017-07-03T21:25:47.283Z,6.50
2017-07-03T21:28:15.611Z,5.06
2017-07-03T21:30:43.928Z,5.88
2017-07-03T21:33:11.489Z,5.56
2017-07-03T21:35:39.805Z,6.28
2017-07-03T21:38:08.145Z,7.28
2017-07-03T21:40:36.462Z,8.72
2017-07-03T21:43:04.842Z,7.46
2017-07-03T21:45:33.172Z,6.02
2017-07-03T21:48:01.484Z,6.36
2017-07-03T21:50:29.816Z,6.68
2017-07-03T21:52:58.125Z,7.98
2017-07-03T21:55:26.622Z,9.64
2017-07-03T21:57:54.933Z,12.80
2017-07-03T22:00:23.272Z,11.06
2017-07-03T22:02:51.589Z,10.98
2017-07-03T22:05:19.913Z,10.64
2017-07-03T22:07:48.253Z,11.00
2017-07-03T22:10:16.599Z,9.28
2017-07-03T22:12:44.931Z,11.52
2017-07-03T22:15:13.255Z,11.06
2017-07-03T22:17:41.597Z,22.32
2017-07-03T22:20:09.917Z,16.26
2017-07-03T22:22:38.269Z,8.90
2017-07-03T22:25:06.607Z,48.90
2017-07-03T22:27:34.920Z,29.70
2017-07-03T22:30:03.255Z,31.54
2017-07-03T22:32:31.577Z,38.50
2017-07-03T22:34:59.921Z,32.46
2017-07-03T22:37:28.241Z,78.50
2017-07-03T22:39:56.576Z,17.92
2017-07-03T22:42:24.132Z,38.48
2017-07-03T22:44:52.501Z,41.98
2017-07-03T22:47:20.823Z,23.76
2017-07-03T22:49:49.141Z,46.58
2017-07-03T22:52:16.716Z,51.10
2017-07-03T22:54:45.037Z,47.42
2017-07-03T22:57:13.436Z,42.20
2017-07-03T22:59:41.751Z,18.86
2017-07-03T23:02:10.085Z,9.76
2017-07-03T23:04:38.400Z,7.76
2017-07-03T23:07:06.744Z,45.16
2017-07-03T23:09:35.061Z,9.02
2017-07-03T23:12:03.389Z,18.18
2017-07-03T23:14:31.725Z,30.66
2017-07-03T23:17:00.043Z,13.20
2017-07-03T23:19:28.381Z,6.48
2017-07-03T23:21:56.694Z,6.30
2017-07-03T23:24:25.044Z,16.62
2017-07-03T23:26:53.359Z,10.30
2017-07-03T23:29:21.727Z,18.96
2017-07-03T23:31:50.041Z,9.24
2017-07-03T23:34:18.355Z,8.74
2017-07-03T23:36:46.816Z,7.10
2017-07-03T23:39:15.144Z,7.78
2017-07-03T23:41:43.486Z,7.06
2017-07-03T23:44:11.800Z,6.26
2017-07-03T23:46:40.132Z,6.44
2017-07-03T23:49:08.453Z,5.42
2017-07-03T23:51:36.799Z,6.14
2017-07-03T23:54:05.936Z,6.44
2017-07-03T23:56:34.252Z,6.28
2017-07-03T23:59:02.604Z,6.32
